Airfield :
LOGIN :

Register | Disclaimer

   EN    FR    IT 

 










Legend :    VFR   Marginal VFR   IFR   Intensive IFR   Very Intensive IFR
Visi :
Ceiling :
>= 8 km
>= 3000ft
5 to 8 km
1000 to 3000 ft
1500m to 5 km
500 to 1000 ft
800 to 1500m
200 to 500 ft
< 800m
< 200 ft
Symbols :   Thunderstorms  Fog  Heavy snow  Heavy precipitations  Wind > 20 kt
SIGMETs :     Misc.  Thunderstorms  Icing  Turbulence  Mountain Waves  Volcanic Ashes






- Airport Elevation : 1345 ft
- IATA code : FRZ


ETHF - Fritzlar

CURRENT METAR :
  • 050620Z 27007KT 9999 FEW025 SCT100 BKN140 10/06 Q0998 BLU

EXPIRED METARs :
  • 050520Z 23004KT 9999 FEW020 BKN060 BKN090 10/07 Q0998 BLU
  • 050420Z 23003KT 9999 FEW020 BKN050 BKN070 09/07 Q0997 BLU

TAF TAF ETHF
Valid from the 04 at 23:00 until the 05 at 08:00 UTC


042212Z 0423/0508 VRB03KT 9999 NSW SCT030 BKN060
TEMPO 0423/0502 31007KT 3000 RA SCT005 BKN010



MET'MAP, your aeronautical weather chart ! - Copyright ORBIFLY December 2007 - Disclaimer

ORBIFLY MET'MAP TEAM :

Programming & Development : Alexandra Zaïnal
Concept & original design : Baudouin d'Aumeries
Assistance for programming : Marc-Olivier Méhu
Technical & hardware support : Manuel Goepfert

Contact : metmap@orbifly.com




SOURCES & CREDITS :

   NOAA